Time;durP1;ratioP1;P1;durP2;ratioP2;P2;SDS_P1;SDS_P2;PMS_P1;PMS_P2;Temp;Humidity;BMP_temperature;BMP_pressure;BME280_temperature;BME280_humidity;BME280_pressure;Samples;Min_cycle;Max_cycle;Signal;HPM_P1;HPM_P2
2020/12/16 00:01:53;;;;;;;31.02;16.70;;;7.70;99.90;;;;;;4944468;28;20035;-71
2020/12/16 00:04:22;;;;;;;30.63;16.45;;;7.70;99.90;;;;;;4944236;28;20047;-70
2020/12/16 00:06:48;;;;;;;28.30;16.00;;;7.70;99.90;;;;;;4942570;28;20035;-70
2020/12/16 00:09:15;;;;;;;29.48;15.82;;;7.70;99.90;;;;;;4943915;29;20050;-71
2020/12/16 00:11:40;;;;;;;30.42;16.33;;;7.80;99.90;;;;;;4944134;29;20033;-71
2020/12/16 00:14:06;;;;;;;27.38;15.68;;;7.70;99.90;;;;;;4943913;28;20750;-71
2020/12/16 00:16:32;;;;;;;31.45;16.25;;;7.80;99.90;;;;;;4944150;28;20082;-71
2020/12/16 00:18:58;;;;;;;30.85;16.92;;;7.70;99.90;;;;;;4944299;28;20086;-71
2020/12/16 00:21:24;;;;;;;29.33;16.20;;;7.70;99.90;;;;;;4943627;28;20035;-71
2020/12/16 00:23:50;;;;;;;28.83;15.52;;;7.70;99.90;;;;;;4944140;28;21050;-71
2020/12/16 00:26:16;;;;;;;30.20;16.70;;;7.70;99.90;;;;;;4943755;28;20460;-71
2020/12/16 00:28:42;;;;;;;30.15;16.88;;;7.70;99.90;;;;;;4943881;28;20428;-70
2020/12/16 00:31:08;;;;;;;28.38;15.13;;;7.70;99.90;;;;;;4943751;28;20033;-71
2020/12/16 00:33:34;;;;;;;27.65;15.88;;;7.80;99.90;;;;;;4958948;28;20114;-71
2020/12/16 00:36:01;;;;;;;30.33;17.02;;;7.80;99.90;;;;;;4943804;28;20539;-71
2020/12/16 00:38:27;;;;;;;29.42;16.40;;;7.90;99.90;;;;;;4958400;28;20035;-71
2020/12/16 00:40:53;;;;;;;32.65;16.42;;;7.90;99.90;;;;;;4944078;28;20530;-71
2020/12/16 00:43:18;;;;;;;33.05;17.55;;;7.90;99.90;;;;;;4943468;28;20138;-71
2020/12/16 00:45:44;;;;;;;32.72;16.88;;;7.90;99.90;;;;;;4943552;29;20522;-71
2020/12/16 00:48:10;;;;;;;32.05;17.13;;;7.90;99.90;;;;;;4943972;28;20483;-71
2020/12/16 00:50:35;;;;;;;38.25;16.15;;;8.00;99.90;;;;;;4943855;28;20050;-71
2020/12/16 00:53:05;;;;;;;29.63;16.00;;;7.90;99.90;;;;;;4958170;28;20028;-71
2020/12/16 00:55:37;;;;;;;32.88;17.52;;;8.00;99.90;;;;;;4958075;28;20023;-71
2020/12/16 00:58:03;;;;;;;31.80;17.27;;;8.00;99.90;;;;;;4958031;28;20509;-71
2020/12/16 01:00:32;;;;;;;34.15;17.88;;;8.00;99.90;;;;;;4958287;28;20062;-71
2020/12/16 01:03:04;;;;;;;33.50;16.85;;;8.00;99.90;;;;;;4958111;28;20054;-71
2020/12/16 01:05:31;;;;;;;30.88;16.50;;;8.00;99.90;;;;;;4957099;28;20153;-71
2020/12/16 01:07:56;;;;;;;30.65;16.83;;;8.00;99.90;;;;;;4957950;28;20057;-71
2020/12/16 01:10:23;;;;;;;33.17;17.65;;;8.00;99.90;;;;;;4943273;28;20043;-71
2020/12/16 01:12:49;;;;;;;32.97;17.30;;;8.00;99.90;;;;;;4957368;28;20038;-71
2020/12/16 01:15:22;;;;;;;32.85;17.02;;;8.00;99.90;;;;;;4942500;28;20472;-71
2020/12/16 01:17:53;;;;;;;28.15;16.25;;;8.00;99.90;;;;;;4957800;28;20027;-71
2020/12/16 01:20:27;;;;;;;33.10;17.20;;;8.00;99.90;;;;;;4946196;28;20032;-71
2020/12/16 01:22:52;;;;;;;33.05;17.48;;;8.00;99.90;;;;;;4957352;28;20050;-71
2020/12/16 01:25:23;;;;;;;34.08;17.63;;;8.00;99.90;;;;;;4942132;29;20518;-71
2020/12/16 01:27:55;;;;;;;30.95;16.58;;;8.10;99.90;;;;;;4941049;29;20067;-71
2020/12/16 01:30:21;;;;;;;27.83;15.93;;;8.10;99.90;;;;;;4957067;28;20039;-70
2020/12/16 01:32:50;;;;;;;32.10;17.25;;;8.00;99.90;;;;;;4942498;28;20042;-71
2020/12/16 01:35:18;;;;;;;33.42;17.05;;;8.00;99.90;;;;;;4941900;28;20053;-71
2020/12/16 01:37:44;;;;;;;32.78;17.45;;;8.00;99.90;;;;;;4942679;28;20047;-71
2020/12/16 01:40:11;;;;;;;30.25;17.10;;;8.10;99.90;;;;;;4943047;28;20046;-70
2020/12/16 01:42:42;;;;;;;34.72;18.63;;;8.10;99.90;;;;;;4933992;28;20035;-70
2020/12/16 01:45:12;;;;;;;35.38;17.52;;;8.10;99.90;;;;;;4941829;28;20031;-71
2020/12/16 01:47:39;;;;;;;34.72;17.63;;;8.10;99.90;;;;;;4950983;28;20042;-71
2020/12/16 01:50:12;;;;;;;30.45;17.33;;;8.20;99.90;;;;;;4956720;28;20122;-71
2020/12/16 01:52:41;;;;;;;31.70;17.55;;;8.10;99.90;;;;;;4957137;28;20031;-71
2020/12/16 01:55:11;;;;;;;32.25;17.90;;;8.20;99.90;;;;;;4924492;29;20035;-71
2020/12/16 01:57:48;;;;;;;34.33;17.48;;;8.10;99.90;;;;;;4934761;29;20563;-71
2020/12/16 02:00:20;;;;;;;34.50;17.60;;;8.10;99.90;;;;;;4956783;28;20035;-71
2020/12/16 02:02:52;;;;;;;34.17;17.70;;;8.20;99.90;;;;;;4956737;28;20035;-71
2020/12/16 02:05:39;;;;;;;32.95;16.65;;;8.10;99.90;;;;;;4946794;28;20043;-70
2020/12/16 02:08:12;;;;;;;31.25;17.42;;;8.10;99.90;;;;;;4956627;28;20066;-70
2020/12/16 02:10:40;;;;;;;30.25;17.42;;;8.10;99.90;;;;;;4956550;28;20042;-70
2020/12/16 02:13:06;;;;;;;32.75;16.98;;;8.20;99.90;;;;;;4956326;28;20034;-71
2020/12/16 02:15:36;;;;;;;32.13;17.30;;;8.20;99.90;;;;;;4956048;28;20031;-71
2020/12/16 02:18:03;;;;;;;32.58;17.27;;;8.10;99.90;;;;;;4955826;28;20089;-71
2020/12/16 02:20:31;;;;;;;32.70;17.90;;;8.10;99.90;;;;;;4956101;28;20874;-71
2020/12/16 02:22:58;;;;;;;31.60;17.00;;;8.10;99.90;;;;;;4955701;28;20034;-70
2020/12/16 02:25:34;;;;;;;29.35;16.35;;;8.10;99.90;;;;;;4941317;29;20039;-71
2020/12/16 02:28:07;;;;;;;32.40;18.05;;;8.10;99.90;;;;;;4956083;28;20090;-71
2020/12/16 02:30:34;;;;;;;37.28;18.20;;;8.20;99.90;;;;;;4941865;28;20039;-70
2020/12/16 02:33:17;;;;;;;38.05;18.90;;;8.10;99.90;;;;;;4956339;28;20039;-71
2020/12/16 02:35:51;;;;;;;35.75;19.15;;;8.10;99.90;;;;;;4941011;28;20043;-70
2020/12/16 02:38:22;;;;;;;34.97;18.45;;;8.10;99.90;;;;;;4956430;28;20261;-70
2020/12/16 02:40:49;;;;;;;37.85;19.15;;;8.10;99.90;;;;;;4941669;28;20032;-70
2020/12/16 02:43:15;;;;;;;34.72;18.17;;;8.10;99.90;;;;;;4941032;28;20058;-70
2020/12/16 02:45:42;;;;;;;37.03;18.50;;;8.10;99.90;;;;;;4939864;29;20074;-70
2020/12/16 02:48:13;;;;;;;36.58;18.88;;;8.00;99.90;;;;;;4941841;28;20039;-70
2020/12/16 02:50:41;;;;;;;36.38;18.50;;;8.00;99.90;;;;;;4956150;28;20039;-70
2020/12/16 02:53:07;;;;;;;35.55;18.77;;;8.00;99.90;;;;;;4956216;28;20078;-70
2020/12/16 02:55:51;;;;;;;34.22;17.27;;;7.90;99.90;;;;;;4941208;28;20507;-71
2020/12/16 02:58:18;;;;;;;37.58;19.05;;;7.90;99.90;;;;;;4955509;28;20042;-70
2020/12/16 03:00:43;;;;;;;37.30;18.77;;;8.00;99.90;;;;;;4941672;28;20027;-70
2020/12/16 03:03:11;;;;;;;38.95;19.52;;;8.00;99.90;;;;;;4941799;28;20086;-70
2020/12/16 03:06:14;;;;;;;31.98;17.92;;;8.00;99.90;;;;;;4934786;28;20772;-70
2020/12/16 03:08:49;;;;;;;34.15;18.67;;;8.00;99.90;;;;;;4955994;28;20039;-70
2020/12/16 03:11:18;;;;;;;39.05;18.60;;;8.00;99.90;;;;;;4955421;28;20041;-70
2020/12/16 03:13:47;;;;;;;39.17;20.17;;;8.10;99.90;;;;;;4956128;28;20411;-70
2020/12/16 03:16:20;;;;;;;41.80;19.98;;;8.10;99.90;;;;;;4955074;28;20046;-70
2020/12/16 03:18:48;;;;;;;41.00;20.13;;;8.10;99.90;;;;;;4955269;28;20035;-70
2020/12/16 03:21:26;;;;;;;37.38;19.13;;;8.20;99.90;;;;;;4956106;28;20031;-70
2020/12/16 03:24:06;;;;;;;40.72;19.50;;;8.10;99.90;;;;;;4958164;28;20035;-70
2020/12/16 03:26:50;;;;;;;42.38;20.60;;;8.10;99.90;;;;;;4940924;29;20054;-69
2020/12/16 03:29:33;;;;;;;41.75;19.95;;;8.20;99.90;;;;;;4956172;28;20055;-70
2020/12/16 03:32:11;;;;;;;36.90;18.55;;;8.10;99.90;;;;;;4955996;28;20050;-69
2020/12/16 03:34:49;;;;;;;41.67;20.55;;;8.10;99.90;;;;;;4955319;28;20496;-69
2020/12/16 03:37:20;;;;;;;42.05;19.95;;;8.10;99.90;;;;;;4939557;29;20050;-70
2020/12/16 03:39:47;;;;;;;41.47;20.35;;;8.10;99.90;;;;;;4956031;28;20039;-70
2020/12/16 03:42:15;;;;;;;38.13;19.45;;;8.10;99.90;;;;;;4955617;28;20046;-69
2020/12/16 03:44:42;;;;;;;41.53;20.33;;;8.10;99.90;;;;;;4956093;28;20066;-70
2020/12/16 03:47:08;;;;;;;38.67;19.60;;;8.10;99.90;;;;;;4955186;28;20039;-69
2020/12/16 03:49:34;;;;;;;43.17;20.75;;;8.20;99.90;;;;;;4939859;29;20043;-70
2020/12/16 03:52:00;;;;;;;39.08;19.70;;;8.10;99.90;;;;;;4955769;28;20645;-70
2020/12/16 03:54:34;;;;;;;39.10;19.55;;;8.20;99.90;;;;;;4955836;28;20109;-72
2020/12/16 03:57:22;;;;;;;39.85;20.58;;;8.20;99.90;;;;;;4955065;28;20031;-70
2020/12/16 04:00:13;;;;;;;36.58;18.38;;;8.30;99.90;;;;;;4939721;28;20154;-70
2020/12/16 04:02:42;;;;;;;42.97;21.08;;;8.30;99.90;;;;;;4940908;28;20113;-70
2020/12/16 04:05:19;;;;;;;40.55;19.73;;;8.20;99.90;;;;;;4955282;28;20039;-70
2020/12/16 04:07:45;;;;;;;43.13;21.13;;;8.30;99.90;;;;;;4958578;28;20063;-70
2020/12/16 04:10:37;;;;;;;41.15;20.50;;;8.30;99.90;;;;;;4938266;28;20151;-70
2020/12/16 04:13:03;;;;;;;41.17;20.63;;;8.20;99.90;;;;;;4943282;29;20090;-70
2020/12/16 04:15:29;;;;;;;45.08;21.15;;;8.20;99.90;;;;;;4943882;28;20027;-70
2020/12/16 04:17:54;;;;;;;49.00;22.50;;;8.20;99.90;;;;;;4958227;28;20038;-70
2020/12/16 04:20:22;;;;;;;48.20;22.30;;;8.20;99.90;;;;;;4959089;28;20042;-70
2020/12/16 04:22:57;;;;;;;43.97;20.27;;;8.20;99.90;;;;;;4958864;28;20039;-70
2020/12/16 04:25:23;;;;;;;46.58;20.75;;;8.20;99.90;;;;;;4943502;28;20042;-70
2020/12/16 04:27:49;;;;;;;45.30;20.98;;;8.20;99.90;;;;;;4958396;28;20050;-70
2020/12/16 04:30:18;;;;;;;46.38;21.73;;;8.20;99.90;;;;;;4958595;28;20037;-70
2020/12/16 04:32:56;;;;;;;52.05;22.45;;;8.20;99.90;;;;;;4958300;28;20138;-70
2020/12/16 04:35:23;;;;;;;48.60;21.02;;;8.20;99.90;;;;;;4958025;28;20460;-70
2020/12/16 04:37:49;;;;;;;50.67;21.63;;;8.30;99.90;;;;;;4958342;28;20130;-70
2020/12/16 04:40:16;;;;;;;49.05;21.73;;;8.30;99.90;;;;;;4958014;28;20800;-70
2020/12/16 04:42:42;;;;;;;56.88;22.05;;;8.40;99.90;;;;;;4958502;28;20050;-70
2020/12/16 04:45:11;;;;;;;46.97;22.15;;;8.40;99.90;;;;;;4957870;28;20067;-70
2020/12/16 04:47:41;;;;;;;54.47;22.40;;;8.40;99.90;;;;;;4957678;28;20039;-70
2020/12/16 04:50:16;;;;;;;48.35;21.25;;;8.30;99.90;;;;;;4957915;28;20035;-70
2020/12/16 04:52:49;;;;;;;55.28;25.45;;;8.40;99.90;;;;;;4927245;29;20041;-70
2020/12/16 04:55:24;;;;;;;59.05;28.17;;;8.40;99.90;;;;;;4957448;28;20135;-70
2020/12/16 04:58:13;;;;;;;73.68;35.42;;;8.40;99.90;;;;;;4958018;28;20875;-70
2020/12/16 05:00:39;;;;;;;60.13;34.80;;;8.30;99.90;;;;;;4958185;28;20210;-70
2020/12/16 05:03:21;;;;;;;65.97;33.85;;;8.30;99.90;;;;;;4957762;28;20578;-71
2020/12/16 05:05:54;;;;;;;64.07;30.77;;;8.20;99.90;;;;;;4957791;28;20042;-71
2020/12/16 05:08:20;;;;;;;59.20;26.83;;;8.30;99.90;;;;;;4942974;28;20038;-71
2020/12/16 05:10:48;;;;;;;57.35;24.38;;;8.30;99.90;;;;;;4943301;28;20451;-71
2020/12/16 05:13:17;;;;;;;52.50;23.88;;;8.30;99.90;;;;;;4943048;28;20027;-71
2020/12/16 05:15:44;;;;;;;51.60;22.48;;;8.30;99.90;;;;;;4942990;28;20483;-70
2020/12/16 05:18:18;;;;;;;48.97;23.20;;;8.30;99.90;;;;;;4941107;28;20567;-70
2020/12/16 05:20:51;;;;;;;65.95;25.23;;;8.30;99.90;;;;;;4943252;28;20050;-70
2020/12/16 05:23:18;;;;;;;47.70;22.77;;;8.30;99.90;;;;;;4943846;28;20039;-69
2020/12/16 05:26:02;;;;;;;46.38;21.00;;;8.20;99.90;;;;;;4942143;28;20031;-70
2020/12/16 05:28:33;;;;;;;45.40;21.30;;;8.30;99.90;;;;;;4941666;29;20035;-71
2020/12/16 05:31:01;;;;;;;43.67;21.10;;;8.20;99.90;;;;;;4943310;28;20043;-70
2020/12/16 05:33:27;;;;;;;49.15;20.70;;;8.20;99.90;;;;;;4941515;29;20062;-71
2020/12/16 05:35:54;;;;;;;44.38;20.08;;;8.30;99.90;;;;;;4942547;28;20115;-70
2020/12/16 05:38:21;;;;;;;42.22;19.08;;;8.30;99.90;;;;;;4942312;28;20038;-70
2020/12/16 05:40:47;;;;;;;42.17;20.00;;;8.20;99.90;;;;;;4942465;28;20039;-70
2020/12/16 05:43:22;;;;;;;44.28;20.33;;;8.20;99.90;;;;;;4942861;28;20773;-71
2020/12/16 05:45:48;;;;;;;;;;;8.20;99.90;;;;;;4943106;28;20694;-71
2020/12/16 05:48:13;;;;;;;43.13;19.48;;;8.20;99.90;;;;;;4942067;29;19914;-70
2020/12/16 05:50:52;;;;;;;44.13;19.50;;;8.10;99.90;;;;;;4942445;28;20118;-71
2020/12/16 05:53:27;;;;;;;41.92;18.85;;;8.10;99.90;;;;;;4942608;28;20027;-71
2020/12/16 05:55:56;;;;;;;39.30;18.27;;;8.10;99.90;;;;;;4941826;28;20078;-71
2020/12/16 05:58:24;;;;;;;47.90;19.58;;;8.20;99.90;;;;;;4942083;28;20035;-70
2020/12/16 06:00:51;;;;;;;42.42;20.30;;;8.10;99.90;;;;;;4942534;28;20555;-70
2020/12/16 06:03:20;;;;;;;44.42;21.15;;;8.10;99.90;;;;;;4941738;28;20411;-71
2020/12/16 06:05:49;;;;;;;40.83;19.50;;;8.10;99.90;;;;;;4941692;29;20042;-73
2020/12/16 06:08:15;;;;;;;45.30;20.00;;;8.10;99.90;;;;;;4956472;28;20043;-70
2020/12/16 06:10:44;;;;;;;40.33;19.33;;;8.10;99.90;;;;;;4941677;28;20563;-70
2020/12/16 06:13:13;;;;;;;45.30;20.00;;;8.00;99.90;;;;;;4941072;28;20550;-70
2020/12/16 06:16:02;;;;;;;43.10;19.38;;;8.00;99.90;;;;;;4954813;28;20035;-71
2020/12/16 06:18:30;;;;;;;45.38;20.20;;;8.00;99.90;;;;;;4937242;28;20125;-70
2020/12/16 06:20:56;;;;;;;40.65;19.25;;;8.10;99.90;;;;;;4941476;28;20150;-70
2020/12/16 06:23:35;;;;;;;44.72;19.90;;;8.10;99.90;;;;;;4938144;28;20038;-70
2020/12/16 06:26:03;;;;;;;43.42;19.83;;;8.10;99.90;;;;;;4939005;29;20027;-70
2020/12/16 06:28:29;;;;;;;44.55;20.55;;;8.10;99.90;;;;;;4939490;28;20066;-74
2020/12/16 06:31:15;;;;;;;49.70;22.75;;;8.10;99.90;;;;;;4937416;28;20134;-70
2020/12/16 06:33:41;;;;;;;;;;;8.10;99.90;;;;;;4942415;29;20035;-70
2020/12/16 06:36:10;;;;;;;44.00;20.45;;;8.10;99.90;;;;;;4941805;28;20606;-70
2020/12/16 06:38:41;;;;;;;44.10;20.42;;;8.10;99.90;;;;;;4955765;28;20042;-70
2020/12/16 06:41:11;;;;;;;42.33;19.95;;;8.10;99.90;;;;;;4941854;28;20062;-70
2020/12/16 06:43:38;;;;;;;44.55;20.17;;;8.00;99.90;;;;;;4942089;28;20783;-68
2020/12/16 06:46:39;;;;;;;39.50;18.35;;;8.00;99.90;;;;;;4941452;28;20098;-71
2020/12/16 06:49:06;;;;;;;57.45;26.75;;;8.00;99.90;;;;;;4941643;29;20043;-73
2020/12/16 06:51:41;;;;;;;50.55;20.88;;;8.00;99.90;;;;;;4940347;29;20832;-69
2020/12/16 06:54:11;;;;;;;49.65;21.48;;;8.00;99.90;;;;;;4939798;28;20032;-70
2020/12/16 06:56:38;;;;;;;49.65;21.48;;;8.00;99.90;;;;;;4949549;28;20688;-70
2020/12/16 06:59:04;;;;;;;49.42;20.85;;;8.00;99.90;;;;;;4940679;28;20027;-69
2020/12/16 07:01:30;;;;;;;54.80;21.65;;;7.90;99.90;;;;;;4940684;28;20487;-71
2020/12/16 07:03:56;;;;;;;69.75;29.90;;;7.80;99.90;;;;;;4939953;29;20058;-71
2020/12/16 07:06:27;;;;;;;52.22;23.10;;;7.70;99.90;;;;;;4941262;29;20138;-71
2020/12/16 07:09:17;;;;;;;77.70;30.95;;;7.70;99.90;;;;;;4955846;28;20547;-71
2020/12/16 07:11:48;;;;;;;69.47;28.40;;;7.70;99.90;;;;;;4935357;28;20059;-70
2020/12/16 07:14:16;;;;;;;62.53;24.27;;;7.70;99.90;;;;;;4941209;28;20038;-69
2020/12/16 07:16:43;;;;;;;63.75;25.52;;;7.70;99.90;;;;;;4954912;28;20031;-70
2020/12/16 07:19:09;;;;;;;55.60;23.88;;;7.70;99.90;;;;;;4941135;28;20171;-70
2020/12/16 07:21:38;;;;;;;57.78;24.88;;;7.70;99.90;;;;;;4941594;28;20043;-70
2020/12/16 07:24:15;;;;;;;59.28;24.27;;;7.70;99.90;;;;;;4940942;28;20036;-70
2020/12/16 07:26:46;;;;;;;55.47;22.98;;;7.60;99.90;;;;;;4941383;28;20027;-70
2020/12/16 07:29:24;;;;;;;55.30;21.60;;;7.60;99.90;;;;;;4940447;28;20031;-70
2020/12/16 07:32:01;;;;;;;48.22;21.70;;;7.50;99.90;;;;;;4940406;29;20142;-70
2020/12/16 07:34:28;;;;;;;49.60;21.30;;;7.40;99.90;;;;;;4941139;28;20035;-70
2020/12/16 07:36:59;;;;;;;51.03;21.95;;;7.40;99.90;;;;;;4940263;28;20031;-70
2020/12/16 07:39:25;;;;;;;55.08;22.10;;;7.30;99.90;;;;;;4940413;28;20027;-69
2020/12/16 07:41:51;;;;;;;51.95;21.40;;;7.30;99.90;;;;;;4957125;28;20459;-70
2020/12/16 07:44:17;;;;;;;57.97;24.58;;;7.20;99.90;;;;;;4944536;28;20031;-69
2020/12/16 07:46:43;;;;;;;54.67;22.73;;;7.20;99.90;;;;;;4944100;28;20081;-69
2020/12/16 07:49:12;;;;;;;58.08;22.42;;;7.30;99.90;;;;;;4944785;28;20499;-69
2020/12/16 07:51:38;;;;;;;61.30;23.20;;;7.20;99.90;;;;;;4938125;29;20051;-69
2020/12/16 07:54:04;;;;;;;51.92;22.27;;;7.20;99.90;;;;;;4944359;28;20511;-69
2020/12/16 07:56:30;;;;;;;51.72;21.98;;;7.10;99.90;;;;;;4944166;29;20403;-69
2020/12/16 07:58:56;;;;;;;50.15;21.85;;;7.00;99.90;;;;;;4944351;28;20535;-71
2020/12/16 08:01:22;;;;;;;53.90;22.17;;;7.00;99.90;;;;;;4944179;28;20043;-70
2020/12/16 08:03:48;;;;;;;66.07;29.08;;;6.90;99.90;;;;;;4944752;28;20717;-70
2020/12/16 08:06:13;;;;;;;64.18;24.25;;;6.90;99.90;;;;;;4944082;28;20039;-70
2020/12/16 08:08:49;;;;;;;182.02;75.47;;;7.50;99.90;;;;;;4942622;29;20159;-67
2020/12/16 08:11:15;;;;;;;;;;;7.10;99.90;;;;;;4944579;28;20147;-69
2020/12/16 08:13:41;;;;;;;62.65;25.27;;;7.10;99.90;;;;;;4944125;28;19922;-69
2020/12/16 08:16:07;;;;;;;58.75;20.98;;;7.10;99.90;;;;;;4943569;28;20040;-70
2020/12/16 08:18:33;;;;;;;59.10;21.15;;;7.10;99.90;;;;;;4942860;28;20138;-69
2020/12/16 08:20:59;;;;;;;54.50;20.95;;;7.20;99.90;;;;;;4944522;28;20122;-70
2020/12/16 08:23:25;;;;;;;52.03;20.92;;;7.30;99.90;;;;;;4936951;28;20109;-68
2020/12/16 08:25:51;;;;;;;48.83;21.10;;;7.40;99.90;;;;;;4944150;29;20532;-69
2020/12/16 08:28:27;;;;;;;56.70;22.92;;;7.50;99.90;;;;;;4962520;28;20035;-70
2020/12/16 08:30:54;;;;;;;52.92;21.52;;;7.60;99.90;;;;;;4957904;28;20086;-70
2020/12/16 08:33:23;;;;;;;54.63;22.38;;;7.60;99.90;;;;;;4942747;28;20031;-69
2020/12/16 08:36:09;;;;;;;51.28;20.60;;;7.60;99.90;;;;;;4957633;28;20031;-69
2020/12/16 08:38:38;;;;;;;52.60;21.02;;;7.60;99.90;;;;;;4942154;29;20046;-69
2020/12/16 08:41:06;;;;;;;51.03;21.63;;;7.60;99.90;;;;;;4943181;28;20101;-70
2020/12/16 08:43:37;;;;;;;54.55;22.55;;;7.80;99.90;;;;;;4942967;28;20081;-70
2020/12/16 08:46:08;;;;;;;56.97;23.55;;;7.90;99.90;;;;;;4942209;28;20699;-70
2020/12/16 08:49:04;;;;;;;61.08;24.35;;;8.10;99.90;;;;;;4942881;28;20035;-70
2020/12/16 08:51:41;;;;;;;66.60;25.58;;;8.40;99.90;;;;;;4938465;28;20055;-70
2020/12/16 08:54:10;;;;;;;63.17;24.35;;;8.50;99.90;;;;;;4943393;28;20551;-70
2020/12/16 08:56:39;;;;;;;57.67;23.00;;;8.50;99.90;;;;;;4942366;28;20039;-70
2020/12/16 08:59:25;;;;;;;55.70;22.90;;;8.50;99.90;;;;;;4957560;28;20039;-70
2020/12/16 09:02:09;;;;;;;54.70;22.40;;;8.50;99.90;;;;;;4942914;28;20036;-70
2020/12/16 09:04:38;;;;;;;55.13;21.90;;;8.40;99.90;;;;;;4942768;29;20122;-70
2020/12/16 09:07:09;;;;;;;57.25;24.42;;;8.50;99.90;;;;;;4942332;28;20070;-69
2020/12/16 09:09:54;;;;;;;56.38;24.42;;;8.50;99.90;;;;;;4943184;28;20039;-69
2020/12/16 09:12:23;;;;;;;54.72;24.50;;;8.60;99.90;;;;;;4942615;28;20805;-69
2020/12/16 09:14:56;;;;;;;50.30;21.95;;;8.80;99.90;;;;;;4942296;28;20035;-69
2020/12/16 09:17:23;;;;;;;47.03;21.70;;;9.20;99.90;;;;;;4956330;28;20035;-70
2020/12/16 09:19:49;;;;;;;46.83;20.70;;;9.40;99.90;;;;;;4942799;28;20043;-70
2020/12/16 09:22:20;;;;;;;44.90;20.08;;;9.30;99.90;;;;;;4942297;28;20451;-70
2020/12/16 09:24:46;;;;;;;43.63;19.45;;;9.40;99.90;;;;;;4942647;28;20094;-70
2020/12/16 09:27:11;;;;;;;43.17;19.40;;;9.40;99.90;;;;;;4942174;28;20062;-74
2020/12/16 09:29:44;;;;;;;43.53;19.05;;;9.40;99.90;;;;;;4943686;28;20090;-70
2020/12/16 09:32:15;;;;;;;49.60;22.08;;;9.50;99.90;;;;;;4942438;29;20059;-70
2020/12/16 09:34:47;;;;;;;47.58;22.05;;;9.50;99.90;;;;;;4936343;29;20035;-70
2020/12/16 09:37:16;;;;;;;41.17;19.92;;;9.60;99.90;;;;;;4941415;28;20031;-69
2020/12/16 09:39:44;;;;;;;39.53;19.08;;;9.70;99.90;;;;;;4942215;28;20067;-69
2020/12/16 09:42:11;;;;;;;38.20;17.65;;;9.70;99.90;;;;;;4956590;28;20031;-69
2020/12/16 09:44:38;;;;;;;34.28;17.05;;;9.70;99.90;;;;;;4941771;28;20138;-69
2020/12/16 09:47:14;;;;;;;40.10;18.63;;;9.80;99.90;;;;;;4941979;28;20793;-70
2020/12/16 09:49:40;;;;;;;34.63;17.25;;;9.90;99.90;;;;;;4936096;29;20056;-69
2020/12/16 09:52:23;;;;;;;42.90;18.58;;;10.00;99.90;;;;;;4942057;28;20046;-69
2020/12/16 09:54:49;;;;;;;39.28;19.20;;;10.10;99.90;;;;;;4941904;28;20073;-69
2020/12/16 09:57:15;;;;;;;41.85;17.80;;;10.00;99.90;;;;;;4941565;28;20106;-69
2020/12/16 09:59:40;;;;;;;41.20;16.65;;;9.80;99.90;;;;;;4941462;29;20562;-69
2020/12/16 10:02:06;;;;;;;36.10;17.25;;;9.80;99.90;;;;;;4941773;29;20539;-70
2020/12/16 10:04:32;;;;;;;33.85;17.52;;;9.80;99.90;;;;;;4941304;28;20042;-70
2020/12/16 10:06:57;;;;;;;36.80;17.80;;;9.90;99.90;;;;;;4941006;28;20038;-70
2020/12/16 10:09:23;;;;;;;34.45;17.40;;;9.90;99.90;;;;;;4941886;28;20083;-70
2020/12/16 10:11:50;;;;;;;36.47;18.73;;;9.80;99.90;;;;;;4941934;28;20063;-70
2020/12/16 10:14:19;;;;;;;38.65;18.08;;;9.90;99.90;;;;;;4941256;28;20035;-70
2020/12/16 10:16:48;;;;;;;32.80;16.77;;;9.90;99.90;;;;;;4941058;28;20039;-70
2020/12/16 10:19:19;;;;;;;40.60;19.50;;;10.00;99.90;;;;;;4941632;29;20043;-70
2020/12/16 10:21:49;;;;;;;38.22;17.80;;;10.10;99.90;;;;;;4941483;28;20039;-70
2020/12/16 10:24:16;;;;;;;39.58;17.58;;;10.00;99.90;;;;;;4942062;28;20061;-69
2020/12/16 10:26:48;;;;;;;34.25;17.95;;;10.10;99.90;;;;;;4941188;28;20035;-70
2020/12/16 10:29:17;;;;;;;35.42;18.17;;;10.10;99.90;;;;;;4940831;29;20127;-70
2020/12/16 10:31:47;;;;;;;38.15;18.30;;;10.10;99.90;;;;;;4941562;29;20566;-69
2020/12/16 10:34:13;;;;;;;38.75;18.45;;;10.00;99.90;;;;;;4940615;28;20039;-70
2020/12/16 10:36:38;;;;;;;39.47;19.08;;;10.10;99.90;;;;;;4939575;28;20491;-69
2020/12/16 10:39:04;;;;;;;33.88;17.20;;;10.10;99.90;;;;;;4941299;29;20138;-69
2020/12/16 10:41:30;;;;;;;37.40;17.85;;;10.20;99.90;;;;;;4941572;28;20066;-69
2020/12/16 10:43:55;;;;;;;33.53;17.92;;;10.30;99.90;;;;;;4941675;28;20031;-69
2020/12/16 10:46:21;;;;;;;36.22;18.27;;;10.30;99.90;;;;;;4940852;29;20542;-69
2020/12/16 10:48:47;;;;;;;35.45;18.65;;;10.40;99.90;;;;;;4941844;29;20063;-70
2020/12/16 10:51:12;;;;;;;36.83;18.20;;;10.40;99.90;;;;;;4941524;29;20118;-70
2020/12/16 10:53:38;;;;;;;42.80;19.88;;;10.20;99.90;;;;;;4941892;29;20082;-70
2020/12/16 10:56:04;;;;;;;31.10;16.52;;;10.10;99.90;;;;;;4940707;29;20046;-69
2020/12/16 10:58:29;;;;;;;33.67;16.92;;;10.00;99.90;;;;;;4940946;28;20031;-70
2020/12/16 11:00:55;;;;;;;30.38;16.10;;;10.10;99.90;;;;;;4956367;28;20051;-70
2020/12/16 11:03:21;;;;;;;36.45;16.48;;;10.10;99.90;;;;;;4956251;28;20035;-70
2020/12/16 11:05:46;;;;;;;41.03;21.38;;;10.10;99.90;;;;;;4940554;28;20038;-70
2020/12/16 11:08:12;;;;;;;36.80;18.00;;;10.10;99.90;;;;;;4956664;28;20830;-70
2020/12/16 11:10:38;;;;;;;32.65;16.90;;;10.00;99.90;;;;;;4941668;28;20043;-70
2020/12/16 11:13:04;;;;;;;29.92;16.48;;;10.10;99.90;;;;;;4955646;28;20085;-70
2020/12/16 11:15:31;;;;;;;35.05;17.67;;;10.10;99.90;;;;;;4939874;28;20106;-69
2020/12/16 11:17:57;;;;;;;28.75;15.48;;;10.30;99.90;;;;;;4940050;28;20094;-69
2020/12/16 11:20:23;;;;;;;27.42;15.77;;;10.30;99.90;;;;;;4939293;29;20039;-70
2020/12/16 11:22:48;;;;;;;28.77;15.10;;;10.50;99.90;;;;;;4940819;28;20122;-70
2020/12/16 11:25:14;;;;;;;30.85;15.25;;;10.50;99.90;;;;;;4940016;29;20496;-70
2020/12/16 11:27:41;;;;;;;25.77;13.75;;;10.50;99.90;;;;;;4939831;28;20094;-71
2020/12/16 11:30:06;;;;;;;23.50;13.90;;;10.50;99.90;;;;;;4940095;29;20039;-70
2020/12/16 11:32:32;;;;;;;26.55;13.93;;;10.40;99.90;;;;;;4940801;28;20035;-71
2020/12/16 11:34:58;;;;;;;27.13;13.45;;;10.40;99.90;;;;;;4940086;28;21031;-70
2020/12/16 11:37:24;;;;;;;26.65;13.20;;;10.30;99.90;;;;;;4940504;28;20181;-70
2020/12/16 11:39:53;;;;;;;27.05;13.43;;;10.20;99.90;;;;;;4941138;28;20643;-71
2020/12/16 11:42:19;;;;;;;24.25;13.25;;;10.20;99.90;;;;;;4940646;28;20031;-70
2020/12/16 11:44:44;;;;;;;29.05;13.65;;;10.20;99.90;;;;;;4941103;29;20078;-70
2020/12/16 11:47:11;;;;;;;28.15;12.98;;;10.20;99.90;;;;;;4940400;28;20043;-71
2020/12/16 11:49:36;;;;;;;27.25;13.13;;;10.20;99.90;;;;;;4940841;29;20066;-70
2020/12/16 11:52:02;;;;;;;27.13;12.70;;;10.10;99.90;;;;;;4941137;29;20135;-71
2020/12/16 11:54:28;;;;;;;44.53;23.45;;;10.10;99.90;;;;;;4940997;28;20039;-70
2020/12/16 11:56:55;;;;;;;23.23;12.15;;;10.10;99.90;;;;;;4939874;29;20050;-71
2020/12/16 11:59:21;;;;;;;22.95;12.02;;;10.20;99.90;;;;;;4940646;28;20055;-70
2020/12/16 12:01:46;;;;;;;26.60;12.95;;;10.20;99.90;;;;;;4955413;28;20835;-70
2020/12/16 12:04:12;;;;;;;24.02;12.68;;;10.20;99.90;;;;;;4955378;28;20122;-71
2020/12/16 12:06:38;;;;;;;25.60;12.95;;;10.10;99.90;;;;;;4939636;29;20724;-71
2020/12/16 12:09:06;;;;;;;20.45;11.23;;;10.20;99.90;;;;;;4940500;28;20119;-69
2020/12/16 12:11:32;;;;;;;25.50;12.38;;;10.30;99.90;;;;;;4954941;28;20044;-72
2020/12/16 12:13:58;;;;;;;23.77;13.15;;;10.30;99.90;;;;;;4955526;28;20034;-72
2020/12/16 12:16:23;;;;;;;23.45;12.30;;;10.40;99.90;;;;;;4939729;29;20042;-72
2020/12/16 12:18:49;;;;;;;22.98;11.85;;;10.40;99.90;;;;;;4939521;29;20392;-70
2020/12/16 12:21:17;;;;;;;28.08;13.15;;;10.40;99.90;;;;;;4955790;28;20035;-70
2020/12/16 12:23:43;;;;;;;31.40;15.40;;;10.60;99.90;;;;;;4956026;28;20098;-69
2020/12/16 12:26:08;;;;;;;25.63;11.32;;;10.40;99.90;;;;;;4940328;28;20054;-70
2020/12/16 12:28:34;;;;;;;20.20;11.07;;;10.40;99.90;;;;;;4943716;28;20039;-71
2020/12/16 12:31:00;;;;;;;21.65;11.63;;;10.40;99.90;;;;;;4943281;29;20127;-71
2020/12/16 12:33:26;;;;;;;19.83;10.48;;;10.40;99.90;;;;;;4944623;28;20031;-72
2020/12/16 12:35:51;;;;;;;20.52;10.80;;;10.40;99.90;;;;;;4943706;29;20069;-71
2020/12/16 12:38:17;;;;;;;20.85;10.52;;;10.30;99.90;;;;;;4943835;28;20476;-73
2020/12/16 12:40:44;;;;;;;14.32;8.73;;;10.10;99.90;;;;;;4944279;29;20045;-70
2020/12/16 12:43:10;;;;;;;17.33;8.90;;;10.10;99.90;;;;;;4958252;28;20035;-71
2020/12/16 12:45:36;;;;;;;17.73;9.05;;;10.10;99.90;;;;;;4942997;28;20063;-73
2020/12/16 12:48:02;;;;;;;16.77;9.05;;;10.20;99.90;;;;;;4933085;28;20049;-72